Time;durP1;ratioP1;P1;durP2;ratioP2;P2;SDS_P1;SDS_P2;PMS_P1;PMS_P2;Temp;Humidity;BMP_temperature;BMP_pressure;BME280_temperature;BME280_humidity;BME280_pressure;Samples;Min_cycle;Max_cycle;Signal;HPM_P1;HPM_P2
2021/12/14 00:01:46;;;;;;;16.57;15.57;;;8.90;99.90;;;;;;5072514;28;20457;-73
2021/12/14 00:04:19;;;;;;;17.03;16.10;;;8.90;99.90;;;;;;5075678;28;20471;-75
2021/12/14 00:06:49;;;;;;;18.00;16.73;;;8.90;99.90;;;;;;5072647;28;20496;-70
2021/12/14 00:09:25;;;;;;;18.47;17.27;;;8.90;99.90;;;;;;5076563;28;20545;-70
2021/12/14 00:12:09;;;;;;;17.60;16.50;;;8.90;99.90;;;;;;5077693;28;20955;-70
2021/12/14 00:17:28;;;;;;;18.70;17.20;;;9.00;99.90;;;;;;5077326;28;20967;-71
2021/12/14 00:19:58;;;;;;;17.47;16.47;;;8.90;99.90;;;;;;5081041;28;20966;-71
2021/12/14 00:22:34;;;;;;;17.83;16.67;;;9.00;99.90;;;;;;5084077;28;20485;-71
2021/12/14 00:25:03;;;;;;;17.03;15.93;;;9.00;99.90;;;;;;5077508;28;20469;-72
2021/12/14 00:27:31;;;;;;;18.20;16.80;;;9.00;99.90;;;;;;5075457;28;20933;-74
2021/12/14 00:30:00;;;;;;;17.63;16.53;;;9.00;99.90;;;;;;5076407;28;20533;-71
2021/12/14 00:32:30;;;;;;;17.43;16.33;;;9.00;99.90;;;;;;5076125;28;20454;-75
2021/12/14 00:35:01;;;;;;;17.17;16.07;;;9.00;99.90;;;;;;5072692;28;20540;-71
2021/12/14 00:37:31;;;;;;;17.90;16.73;;;9.00;99.90;;;;;;5076030;28;20700;-72
2021/12/14 00:40:01;;;;;;;17.27;16.23;;;9.00;99.90;;;;;;5077267;28;20683;-72
2021/12/14 00:42:29;;;;;;;17.20;16.10;;;9.10;99.90;;;;;;5074878;28;20486;-70
2021/12/14 00:44:56;;;;;;;17.10;16.00;;;9.10;99.90;;;;;;5077020;28;20484;-69
2021/12/14 00:47:24;;;;;;;16.73;15.43;;;9.00;99.90;;;;;;5073059;28;20495;-71
2021/12/14 00:49:54;;;;;;;16.80;15.70;;;9.00;99.90;;;;;;5082074;28;20459;-71
2021/12/14 00:52:21;;;;;;;18.53;17.20;;;9.00;99.90;;;;;;5075519;28;20489;-71
2021/12/14 00:54:48;;;;;;;17.90;16.77;;;9.00;99.90;;;;;;5080601;28;20466;-70
2021/12/14 00:57:15;;;;;;;17.87;16.70;;;8.90;99.90;;;;;;5073106;28;20470;-71
2021/12/14 00:59:44;;;;;;;17.60;16.40;;;8.80;99.90;;;;;;5072569;28;20492;-70
2021/12/14 01:02:14;;;;;;;17.63;16.43;;;8.80;99.90;;;;;;5077313;28;20816;-74
2021/12/14 01:04:44;;;;;;;17.87;16.77;;;8.70;99.90;;;;;;5072275;28;20462;-69
2021/12/14 01:07:15;;;;;;;18.77;17.57;;;8.80;99.90;;;;;;5071615;28;20869;-71
2021/12/14 01:09:47;;;;;;;17.07;15.90;;;8.80;99.90;;;;;;5076889;28;20449;-71
2021/12/14 01:12:21;;;;;;;18.20;16.80;;;8.90;99.90;;;;;;5079044;28;20964;-71
2021/12/14 01:15:00;;;;;;;18.70;17.20;;;8.90;99.90;;;;;;5077862;28;20458;-70
2021/12/14 01:17:41;;;;;;;18.10;16.83;;;8.80;99.90;;;;;;5075183;28;20494;-73
2021/12/14 01:20:12;;;;;;;19.97;18.50;;;8.60;99.90;;;;;;5079727;28;20461;-73
2021/12/14 01:22:41;;;;;;;19.80;18.13;;;8.60;99.90;;;;;;5078601;28;20831;-75
2021/12/14 01:25:15;;;;;;;19.10;17.63;;;8.70;99.90;;;;;;5078269;28;20828;-71
2021/12/14 01:27:49;;;;;;;18.53;16.93;;;8.60;99.90;;;;;;5066978;28;20494;-72
2021/12/14 01:30:29;;;;;;;20.53;18.57;;;8.40;99.90;;;;;;5075257;28;20481;-74
2021/12/14 01:33:01;;;;;;;19.73;18.03;;;8.40;99.90;;;;;;5074835;28;20473;-71
2021/12/14 01:35:32;;;;;;;18.90;17.00;;;8.50;99.90;;;;;;5079963;28;20488;-73
2021/12/14 01:38:05;;;;;;;20.00;18.40;;;8.50;99.90;;;;;;5076737;28;20474;-70
2021/12/14 01:40:54;;;;;;;19.53;18.07;;;8.50;99.90;;;;;;5066495;28;20482;-72
2021/12/14 01:43:24;;;;;;;18.70;17.20;;;8.50;99.90;;;;;;5080659;28;20830;-71
2021/12/14 01:45:53;;;;;;;21.23;19.27;;;8.50;99.90;;;;;;5073755;28;20472;-73
2021/12/14 01:48:21;;;;;;;19.73;17.83;;;8.50;99.90;;;;;;5076909;28;21027;-72
2021/12/14 01:50:54;;;;;;;18.87;17.10;;;8.50;99.90;;;;;;5075016;28;21039;-70
2021/12/14 01:53:22;;;;;;;20.60;18.70;;;8.40;99.90;;;;;;5079847;28;20457;-71
2021/12/14 01:55:53;;;;;;;20.33;18.50;;;8.40;99.90;;;;;;5078217;28;20914;-70
2021/12/14 01:58:22;;;;;;;20.40;18.60;;;8.40;99.90;;;;;;5076643;28;20457;-70
2021/12/14 02:00:58;;;;;;;20.07;18.13;;;8.40;99.90;;;;;;5081043;28;20849;-71
2021/12/14 02:03:32;;;;;;;19.67;17.87;;;8.50;99.90;;;;;;5074242;28;20470;-71
2021/12/14 02:05:59;;;;;;;22.00;20.07;;;8.40;99.90;;;;;;5079465;28;20465;-73
2021/12/14 02:08:29;;;;;;;21.20;19.23;;;8.40;99.90;;;;;;5075141;28;20499;-70
2021/12/14 02:10:59;;;;;;;22.40;19.83;;;8.30;99.90;;;;;;5078416;28;20466;-70
2021/12/14 02:13:30;;;;;;;22.53;19.60;;;8.20;99.90;;;;;;5073595;28;20461;-68
2021/12/14 02:15:59;;;;;;;22.67;20.57;;;8.20;99.90;;;;;;5073440;28;20468;-68
2021/12/14 02:18:29;;;;;;;22.37;20.27;;;8.30;99.90;;;;;;5077954;28;20458;-72
2021/12/14 02:20:59;;;;;;;22.67;20.53;;;8.10;99.90;;;;;;5073734;28;20469;-70
2021/12/14 02:23:27;;;;;;;22.40;20.00;;;8.20;99.90;;;;;;5071360;28;20469;-69
2021/12/14 02:25:56;;;;;;;21.57;19.40;;;8.30;99.90;;;;;;5077912;28;20466;-72
2021/12/14 02:28:24;;;;;;;21.70;19.80;;;8.30;99.90;;;;;;5076427;28;20480;-69
2021/12/14 02:30:54;;;;;;;21.93;20.00;;;8.30;99.90;;;;;;5070810;28;20476;-71
2021/12/14 02:33:23;;;;;;;20.83;18.83;;;8.40;99.90;;;;;;5082125;28;21137;-72
2021/12/14 02:35:52;;;;;;;22.10;19.83;;;8.40;99.90;;;;;;5079323;28;20465;-69
2021/12/14 02:38:21;;;;;;;20.27;18.47;;;8.40;99.90;;;;;;5078144;28;20479;-69
2021/12/14 02:40:55;;;;;;;23.03;20.80;;;8.40;99.90;;;;;;5074450;28;20444;-72
2021/12/14 02:43:25;;;;;;;22.50;20.00;;;8.40;99.90;;;;;;5072937;28;20478;-70
2021/12/14 02:45:54;;;;;;;22.57;20.30;;;8.40;99.90;;;;;;5074190;28;20476;-69
2021/12/14 02:48:24;;;;;;;21.27;19.23;;;8.40;99.90;;;;;;5077359;28;20497;-69
2021/12/14 02:50:51;;;;;;;24.70;20.23;;;8.20;99.90;;;;;;5080825;28;20538;-69
2021/12/14 02:53:18;;;;;;;25.80;21.27;;;8.00;99.90;;;;;;5078871;28;20465;-72
2021/12/14 02:55:46;;;;;;;22.17;19.80;;;8.10;99.90;;;;;;5076640;28;20841;-69
2021/12/14 02:58:13;;;;;;;20.67;18.67;;;8.20;99.90;;;;;;5070629;28;20463;-69
2021/12/14 03:00:46;;;;;;;23.90;21.50;;;8.20;99.90;;;;;;5077708;28;20454;-69
2021/12/14 03:03:15;;;;;;;23.17;20.50;;;8.20;99.90;;;;;;5079922;28;20463;-69
2021/12/14 03:05:44;;;;;;;23.43;21.13;;;8.30;99.90;;;;;;5076728;28;20563;-69
2021/12/14 03:08:17;;;;;;;28.00;21.30;;;8.20;99.90;;;;;;5076972;28;20492;-69
2021/12/14 03:10:56;;;;;;;25.63;22.90;;;8.30;99.90;;;;;;5081465;28;20461;-72
2021/12/14 03:13:26;;;;;;;23.03;20.90;;;8.30;99.90;;;;;;5067647;28;20504;-69
2021/12/14 03:15:56;;;;;;;22.87;20.60;;;8.30;99.90;;;;;;5083184;28;21015;-70
2021/12/14 03:18:26;;;;;;;22.97;20.67;;;8.40;99.90;;;;;;5084441;28;20466;-69
2021/12/14 03:20:57;;;;;;;25.50;22.37;;;8.40;99.90;;;;;;5077771;28;20471;-72
2021/12/14 03:23:29;;;;;;;24.10;21.37;;;8.20;99.90;;;;;;5077707;28;20463;-69
2021/12/14 03:26:00;;;;;;;23.47;20.83;;;8.20;99.90;;;;;;5074813;28;20468;-69
2021/12/14 03:28:30;;;;;;;24.57;21.80;;;8.20;99.90;;;;;;5079306;28;20519;-70
2021/12/14 03:31:04;;;;;;;24.50;22.00;;;8.20;99.90;;;;;;5073771;28;20465;-69
2021/12/14 03:33:36;;;;;;;24.67;21.40;;;8.10;99.90;;;;;;5071989;28;20465;-72
2021/12/14 03:36:06;;;;;;;24.17;21.57;;;8.10;99.90;;;;;;5080439;28;20505;-69
2021/12/14 03:38:37;;;;;;;26.23;21.30;;;8.10;99.90;;;;;;5078366;28;20465;-69
2021/12/14 03:41:12;;;;;;;24.37;21.93;;;8.10;99.90;;;;;;5078724;28;20583;-69
2021/12/14 03:43:43;;;;;;;23.00;20.63;;;8.20;99.90;;;;;;5073776;28;20525;-72
2021/12/14 03:46:10;;;;;;;30.13;24.50;;;8.20;99.90;;;;;;5076594;28;20505;-69
2021/12/14 03:48:40;;;;;;;24.10;21.57;;;8.10;99.90;;;;;;5073273;28;20497;-71
2021/12/14 03:51:07;;;;;;;26.30;20.07;;;8.10;99.90;;;;;;5077847;28;20453;-70
2021/12/14 03:53:34;;;;;;;25.83;21.57;;;8.00;99.90;;;;;;5084055;28;20472;-68
2021/12/14 03:56:05;;;;;;;23.33;20.83;;;8.00;99.90;;;;;;5080334;28;20469;-69
2021/12/14 03:58:39;;;;;;;25.47;21.97;;;8.00;99.90;;;;;;5080858;28;20475;-69
2021/12/14 04:01:10;;;;;;;24.50;21.30;;;8.00;99.90;;;;;;5084279;28;20459;-69
2021/12/14 04:03:38;;;;;;;22.83;20.53;;;8.00;99.90;;;;;;5076261;28;20457;-73
2021/12/14 04:06:06;;;;;;;26.60;21.90;;;7.90;99.90;;;;;;5080177;28;20465;-68
2021/12/14 04:08:34;;;;;;;34.20;23.37;;;8.00;99.90;;;;;;5079481;28;20521;-69
2021/12/14 04:11:05;;;;;;;31.60;25.13;;;7.90;99.90;;;;;;5077069;28;20457;-68
2021/12/14 04:13:37;;;;;;;28.17;24.73;;;7.90;99.90;;;;;;5080558;28;20467;-69
2021/12/14 04:16:05;;;;;;;26.93;24.13;;;7.90;99.90;;;;;;5077442;28;20457;-71
2021/12/14 04:18:32;;;;;;;27.73;24.73;;;7.90;99.90;;;;;;5078448;28;20455;-68
2021/12/14 04:21:01;;;;;;;27.87;24.27;;;7.90;99.90;;;;;;5074966;28;20488;-70
2021/12/14 04:23:31;;;;;;;27.93;24.83;;;7.90;99.90;;;;;;5068385;28;20474;-68
2021/12/14 04:25:59;;;;;;;26.67;23.90;;;7.90;99.90;;;;;;5079933;28;20467;-71
2021/12/14 04:28:33;;;;;;;33.57;26.07;;;7.90;99.90;;;;;;5076681;28;20498;-69
2021/12/14 04:31:01;;;;;;;28.40;25.27;;;7.80;99.90;;;;;;5072974;28;20480;-71
2021/12/14 04:33:31;;;;;;;30.00;26.47;;;7.80;99.90;;;;;;5078614;28;20466;-70
2021/12/14 04:35:59;;;;;;;30.57;25.73;;;7.80;99.90;;;;;;5073473;28;20558;-69
2021/12/14 04:38:30;;;;;;;28.63;25.53;;;7.80;99.90;;;;;;5082242;28;20451;-68
2021/12/14 04:52:13;;;;;;;31.70;27.47;;;7.80;99.90;;;;;;5080784;28;20551;-70
2021/12/14 04:54:42;;;;;;;30.70;27.47;;;7.70;99.90;;;;;;5080499;28;20896;-68
2021/12/14 04:57:20;;;;;;;32.93;24.90;;;7.70;99.90;;;;;;5073770;28;20467;-68
2021/12/14 04:59:49;;;;;;;41.50;26.67;;;7.70;99.90;;;;;;5082977;28;20468;-69
2021/12/14 05:02:23;;;;;;;28.33;25.57;;;7.70;99.90;;;;;;5062598;28;20466;-68
2021/12/14 05:04:53;;;;;;;29.53;26.17;;;7.70;99.90;;;;;;5064097;28;20467;-71
2021/12/14 05:07:44;;;;;;;27.90;25.27;;;7.70;99.90;;;;;;5066780;28;20458;-68
2021/12/14 05:10:17;;;;;;;28.90;26.17;;;7.70;99.90;;;;;;5071208;28;20471;-70
2021/12/14 05:12:44;;;;;;;30.97;27.97;;;7.70;99.90;;;;;;5076197;28;20463;-69
2021/12/14 05:15:13;;;;;;;31.00;27.83;;;7.70;99.90;;;;;;5074165;28;20471;-68
2021/12/14 05:17:44;;;;;;;32.10;28.93;;;7.60;99.90;;;;;;5075426;28;20820;-71
2021/12/14 05:20:13;;;;;;;33.00;29.60;;;7.60;99.90;;;;;;5069749;28;20999;-69
2021/12/14 05:22:44;;;;;;;31.63;28.57;;;7.60;99.90;;;;;;5069536;28;20456;-68
2021/12/14 05:25:14;;;;;;;38.93;28.83;;;7.70;99.90;;;;;;5074876;28;20453;-68
2021/12/14 05:27:44;;;;;;;35.40;31.30;;;7.60;99.90;;;;;;5074407;28;20489;-70
2021/12/14 05:30:14;;;;;;;32.33;29.03;;;7.60;99.90;;;;;;5071947;28;20555;-71
2021/12/14 05:32:45;;;;;;;33.30;30.00;;;7.60;99.90;;;;;;5070669;28;20871;-68
2021/12/14 05:35:14;;;;;;;35.53;31.60;;;7.60;99.90;;;;;;5082730;28;20461;-68
2021/12/14 05:37:47;;;;;;;32.57;29.47;;;7.60;99.90;;;;;;5071126;28;20528;-69
2021/12/14 05:40:23;;;;;;;34.27;30.60;;;7.50;99.90;;;;;;5067398;28;20483;-70
2021/12/14 05:43:08;;;;;;;33.13;29.93;;;7.50;99.90;;;;;;5072268;28;20490;-69
2021/12/14 05:45:38;;;;;;;36.60;32.43;;;7.50;99.90;;;;;;5073020;28;20489;-69
2021/12/14 05:48:09;;;;;;;33.80;30.60;;;7.70;99.90;;;;;;5070395;28;20486;-68
2021/12/14 05:50:39;;;;;;;35.97;32.63;;;7.60;99.90;;;;;;5068800;28;20539;-70
2021/12/14 05:53:07;;;;;;;35.50;32.00;;;7.70;99.90;;;;;;5068289;28;20462;-69
2021/12/14 05:55:37;;;;;;;35.20;31.53;;;7.70;99.90;;;;;;5073016;28;20572;-71
2021/12/14 05:58:12;;;;;;;34.17;30.50;;;7.60;99.90;;;;;;5078075;28;20926;-70
2021/12/14 06:00:43;;;;;;;34.57;31.50;;;7.50;99.90;;;;;;5073102;28;20525;-71
2021/12/14 06:03:18;;;;;;;34.47;31.23;;;7.50;99.90;;;;;;5065288;28;20474;-69
2021/12/14 06:05:45;;;;;;;34.43;31.20;;;7.50;99.90;;;;;;5059037;28;20490;-69
2021/12/14 06:08:19;;;;;;;35.07;31.57;;;7.40;99.90;;;;;;5077714;28;20592;-69
2021/12/14 06:10:46;;;;;;;33.63;30.67;;;7.60;99.90;;;;;;5081640;28;20526;-69
2021/12/14 06:13:16;;;;;;;33.73;30.37;;;7.70;99.90;;;;;;5071806;28;20789;-69
2021/12/14 06:15:44;;;;;;;34.60;31.30;;;7.60;99.90;;;;;;5069391;28;20461;-70
2021/12/14 06:18:11;;;;;;;34.77;31.07;;;7.50;99.90;;;;;;5073575;28;20543;-69
2021/12/14 06:20:43;;;;;;;35.60;32.20;;;7.50;99.90;;;;;;5080639;28;20489;-72
2021/12/14 06:23:09;;;;;;;34.73;31.40;;;7.60;99.90;;;;;;5072844;28;20476;-70
2021/12/14 06:25:36;;;;;;;37.73;31.83;;;7.60;99.90;;;;;;5072099;28;20470;-69
2021/12/14 06:28:04;;;;;;;34.53;31.17;;;7.60;99.90;;;;;;5076709;28;21096;-69
2021/12/14 06:30:33;;;;;;;34.50;31.50;;;7.60;99.90;;;;;;5074759;28;20956;-72
2021/12/14 06:33:02;;;;;;;33.97;30.70;;;7.60;99.90;;;;;;5075786;28;21280;-69
2021/12/14 06:35:35;;;;;;;33.97;30.87;;;7.60;99.90;;;;;;5079395;28;20452;-69
2021/12/14 06:41:08;;;;;;;35.43;31.97;;;7.60;99.90;;;;;;5073758;28;20447;-70
2021/12/14 06:43:37;;;;;;;33.77;30.30;;;7.60;99.90;;;;;;5070182;28;21285;-71
2021/12/14 06:46:06;;;;;;;34.13;31.00;;;7.70;99.90;;;;;;5069491;28;21024;-69
2021/12/14 06:48:39;;;;;;;34.43;31.23;;;7.70;99.90;;;;;;5075224;28;20486;-69
2021/12/14 06:51:11;;;;;;;34.70;31.50;;;7.70;99.90;;;;;;5069419;28;20649;-69
2021/12/14 06:53:40;;;;;;;35.23;31.63;;;7.60;99.90;;;;;;5065695;28;20991;-69
2021/12/14 06:56:10;;;;;;;34.33;31.23;;;7.50;99.90;;;;;;5059164;28;20486;-69
2021/12/14 06:58:46;;;;;;;35.10;31.70;;;7.60;99.90;;;;;;5066768;28;20469;-72
2021/12/14 07:01:17;;;;;;;33.77;30.77;;;7.60;99.90;;;;;;5067273;28;20477;-69
2021/12/14 07:03:47;;;;;;;34.27;30.93;;;7.60;99.90;;;;;;5072745;28;21007;-71
2021/12/14 07:06:24;;;;;;;34.57;31.07;;;7.60;99.90;;;;;;5067432;28;20465;-69
2021/12/14 07:08:53;;;;;;;33.37;30.20;;;7.50;99.90;;;;;;5064382;28;20604;-69
2021/12/14 07:11:22;;;;;;;33.03;30.03;;;7.50;99.90;;;;;;5071576;28;20482;-69
2021/12/14 07:13:50;;;;;;;33.30;30.27;;;7.50;99.90;;;;;;5067429;28;20458;-72
2021/12/14 07:16:23;;;;;;;34.47;30.80;;;7.60;99.90;;;;;;5074417;28;20542;-69
2021/12/14 07:18:53;;;;;;;32.67;29.60;;;7.60;99.90;;;;;;5071880;28;20470;-69
2021/12/14 07:21:37;;;;;;;32.87;30.07;;;7.50;99.90;;;;;;5070832;28;20462;-69
2021/12/14 07:24:41;;;;;;;33.33;30.23;;;7.50;99.90;;;;;;5064171;28;20469;-71
2021/12/14 07:27:25;;;;;;;34.63;31.30;;;7.50;99.90;;;;;;5073244;28;20463;-69
2021/12/14 07:29:53;;;;;;;31.17;28.33;;;7.50;99.90;;;;;;5065048;28;20481;-72
2021/12/14 07:32:40;;;;;;;36.90;29.30;;;7.60;99.90;;;;;;5069216;28;20468;-69
2021/12/14 07:35:45;;;;;;;31.93;28.93;;;7.60;99.90;;;;;;5068574;28;20457;-69
2021/12/14 07:38:39;;;;;;;31.00;28.30;;;7.60;99.90;;;;;;5058261;28;20977;-69
2021/12/14 07:41:13;;;;;;;31.50;28.40;;;7.60;99.90;;;;;;5076976;28;20536;-72
2021/12/14 07:43:46;;;;;;;31.53;28.53;;;7.60;99.90;;;;;;5074530;28;20487;-69
2021/12/14 07:46:18;;;;;;;30.07;27.07;;;7.70;99.90;;;;;;5079361;28;20500;-70
2021/12/14 07:48:48;;;;;;;29.20;26.17;;;7.70;99.90;;;;;;5075898;28;20485;-70
2021/12/14 07:51:16;;;;;;;27.90;25.20;;;7.80;99.90;;;;;;5069392;28;20524;-69
2021/12/14 07:53:47;;;;;;;27.17;24.37;;;7.60;99.90;;;;;;5068158;28;21027;-70
2021/12/14 07:56:27;;;;;;;27.93;25.17;;;7.50;99.90;;;;;;5070348;28;20834;-69
2021/12/14 07:58:56;;;;;;;27.43;24.60;;;7.60;99.90;;;;;;5078722;28;20480;-71
2021/12/14 08:01:24;;;;;;;28.03;25.27;;;7.60;99.90;;;;;;5065386;28;20469;-71
2021/12/14 08:04:00;;;;;;;25.63;23.10;;;7.60;99.90;;;;;;5062103;28;20462;-69
2021/12/14 08:06:27;;;;;;;28.50;25.00;;;7.50;99.90;;;;;;5062918;28;20477;-69
2021/12/14 08:08:55;;;;;;;27.67;24.90;;;7.60;99.90;;;;;;5061808;28;20930;-69
2021/12/14 08:11:47;;;;;;;29.83;26.23;;;7.60;99.90;;;;;;5071697;28;20478;-71
2021/12/14 08:14:19;;;;;;;29.17;26.17;;;7.60;99.90;;;;;;5066399;28;20487;-69
2021/12/14 08:16:50;;;;;;;29.00;23.57;;;7.70;99.90;;;;;;5071154;28;20462;-70
2021/12/14 08:19:26;;;;;;;28.60;25.40;;;7.70;99.90;;;;;;5071718;28;20457;-73
2021/12/14 08:21:55;;;;;;;29.33;25.77;;;7.80;99.90;;;;;;5061711;28;20476;-71
2021/12/14 08:24:22;;;;;;;34.17;30.20;;;7.80;99.90;;;;;;5067630;28;20546;-73
2021/12/14 08:26:52;;;;;;;30.70;26.67;;;7.80;99.90;;;;;;5066302;28;20476;-71
2021/12/14 08:29:22;;;;;;;28.17;25.40;;;7.80;99.90;;;;;;5068263;28;20494;-72
2021/12/14 08:31:51;;;;;;;25.70;23.17;;;7.80;99.90;;;;;;5067782;28;20454;-72
2021/12/14 08:34:21;;;;;;;44.30;39.67;;;7.80;99.90;;;;;;5054106;28;20475;-72
2021/12/14 08:36:51;;;;;;;30.30;25.77;;;7.70;99.90;;;;;;5056045;28;20473;-69
2021/12/14 08:39:22;;;;;;;27.23;24.37;;;7.80;99.90;;;;;;5062186;28;20458;-68
2021/12/14 08:41:55;;;;;;;27.13;24.30;;;7.70;99.90;;;;;;5063478;28;20549;-69
2021/12/14 08:44:35;;;;;;;33.30;30.00;;;7.80;99.90;;;;;;5067497;28;20493;-73
2021/12/14 08:47:04;;;;;;;35.20;29.67;;;7.90;99.90;;;;;;5064394;28;20869;-68
2021/12/14 08:49:31;;;;;;;35.50;25.63;;;7.80;99.90;;;;;;5070841;28;20487;-70
2021/12/14 08:51:58;;;;;;;27.30;24.60;;;7.90;99.90;;;;;;5067031;28;20989;-70
2021/12/14 08:54:29;;;;;;;31.70;28.40;;;7.90;99.90;;;;;;5064961;28;20564;-71
2021/12/14 08:56:59;;;;;;;34.33;31.13;;;8.00;99.90;;;;;;5069026;28;21001;-71
2021/12/14 08:59:28;;;;;;;28.10;24.60;;;8.00;99.90;;;;;;5073451;28;20558;-69
2021/12/14 09:01:56;;;;;;;29.63;25.47;;;8.00;99.90;;;;;;5062984;28;20825;-70
2021/12/14 09:04:29;;;;;;;34.97;31.33;;;8.10;99.90;;;;;;5063685;28;20988;-71
2021/12/14 09:07:00;;;;;;;25.70;23.07;;;8.00;99.90;;;;;;5079262;28;20526;-72
2021/12/14 09:09:28;;;;;;;28.53;25.70;;;8.00;99.90;;;;;;5063019;28;20497;-69
2021/12/14 09:12:00;;;;;;;29.60;26.60;;;8.00;99.90;;;;;;5066962;28;20461;-72
2021/12/14 09:14:29;;;;;;;32.60;29.20;;;8.00;99.90;;;;;;5068015;28;20470;-70
2021/12/14 09:16:58;;;;;;;27.53;24.03;;;8.10;99.90;;;;;;5068613;28;20473;-71
2021/12/14 09:19:30;;;;;;;29.87;26.60;;;8.10;99.90;;;;;;5063444;28;20460;-73
2021/12/14 09:22:00;;;;;;;29.13;25.93;;;8.00;99.90;;;;;;5062844;28;20489;-70
2021/12/14 09:24:29;;;;;;;28.63;24.93;;;7.90;99.90;;;;;;5067171;28;20466;-72
2021/12/14 09:26:59;;;;;;;29.40;25.87;;;8.00;99.90;;;;;;5071498;28;20992;-73
2021/12/14 09:29:29;;;;;;;33.73;28.97;;;8.00;99.90;;;;;;5067081;28;21446;-72
2021/12/14 09:31:58;;;;;;;34.00;29.27;;;8.10;99.90;;;;;;5069523;28;20462;-72
2021/12/14 09:34:28;;;;;;;38.83;29.70;;;8.00;99.90;;;;;;5065804;28;20462;-73
2021/12/14 09:36:56;;;;;;;26.70;23.90;;;8.20;99.90;;;;;;5065426;28;20995;-71
2021/12/14 09:39:29;;;;;;;30.20;27.20;;;8.00;99.90;;;;;;5072923;28;20468;-72
2021/12/14 09:41:57;;;;;;;33.13;28.07;;;8.10;99.90;;;;;;5073059;28;20470;-73
2021/12/14 09:44:27;;;;;;;27.23;22.70;;;8.20;99.90;;;;;;5068520;28;20489;-71
2021/12/14 09:46:58;;;;;;;30.27;27.20;;;8.20;99.90;;;;;;5066187;28;20461;-69
2021/12/14 09:49:26;;;;;;;27.20;23.70;;;8.20;99.90;;;;;;5068620;28;20484;-71
2021/12/14 09:51:56;;;;;;;30.53;24.73;;;8.20;99.90;;;;;;5075300;22;20500;-70
2021/12/14 09:54:27;;;;;;;28.43;24.53;;;8.30;99.90;;;;;;5040387;28;20753;-74
2021/12/14 09:56:57;;;;;;;26.23;23.30;;;8.30;99.90;;;;;;5039555;28;20827;-71
2021/12/14 09:59:24;;;;;;;28.67;25.63;;;8.30;99.90;;;;;;5035702;28;22465;-71
2021/12/14 10:01:56;;;;;;;28.53;25.63;;;8.40;99.90;;;;;;5037670;28;20978;-74
2021/12/14 10:04:27;;;;;;;29.30;26.00;;;8.50;99.90;;;;;;5039459;28;20468;-70
2021/12/14 10:06:55;;;;;;;31.73;26.27;;;8.50;99.90;;;;;;5032245;28;20471;-72
2021/12/14 10:09:25;;;;;;;25.53;22.80;;;8.60;99.90;;;;;;5037414;28;20515;-70
2021/12/14 10:12:16;;;;;;;26.63;23.40;;;8.60;99.90;;;;;;5039961;28;20557;-72
2021/12/14 10:14:45;;;;;;;25.00;22.43;;;8.60;99.90;;;;;;5031084;28;20570;-73
2021/12/14 10:17:14;;;;;;;23.80;21.43;;;8.70;99.90;;;;;;5036362;28;20489;-70
2021/12/14 10:19:44;;;;;;;24.83;22.33;;;8.70;99.90;;;;;;5037747;28;20471;-70
2021/12/14 10:22:15;;;;;;;25.97;23.20;;;8.70;99.90;;;;;;5031810;28;20910;-71
2021/12/14 10:24:42;;;;;;;27.60;23.33;;;8.70;99.90;;;;;;5034998;28;20493;-70
2021/12/14 10:27:11;;;;;;;27.07;24.23;;;8.50;99.90;;;;;;5040315;28;20541;-73
2021/12/14 10:29:38;;;;;;;26.97;24.00;;;8.50;99.90;;;;;;5033772;28;20859;-71
2021/12/14 10:32:08;;;;;;;26.17;23.53;;;8.40;99.90;;;;;;5036259;28;20470;-70
2021/12/14 10:34:40;;;;;;;25.73;23.30;;;8.60;99.90;;;;;;5037943;28;20829;-72
2021/12/14 10:37:17;;;;;;;25.20;22.30;;;8.70;99.90;;;;;;5034989;28;20474;-71
2021/12/14 10:45:26;;;;;;;26.00;23.37;;;8.90;99.90;;;;;;4997162;28;20482;-71
2021/12/14 10:47:53;;;;;;;27.97;22.63;;;8.80;99.90;;;;;;5008217;28;20998;-71
2021/12/14 10:50:31;;;;;;;25.20;22.53;;;8.70;99.90;;;;;;5022726;28;20482;-73
2021/12/14 10:53:00;;;;;;;27.13;23.60;;;8.80;99.90;;;;;;5016568;28;20580;-71
2021/12/14 10:55:32;;;;;;;24.47;22.10;;;9.00;99.90;;;;;;5011168;28;20469;-71
2021/12/14 10:57:59;;;;;;;26.90;23.33;;;9.10;99.90;;;;;;5017394;28;20556;-72
2021/12/14 11:00:33;;;;;;;24.40;21.97;;;9.10;99.90;;;;;;5018205;28;20468;-73
2021/12/14 11:03:03;;;;;;;27.13;24.30;;;9.10;99.90;;;;;;5016369;28;20475;-70
2021/12/14 11:05:32;;;;;;;26.73;24.07;;;9.20;99.90;;;;;;5020507;28;20472;-73
2021/12/14 11:08:01;;;;;;;25.37;22.97;;;9.00;99.90;;;;;;5009717;28;20476;-70
2021/12/14 11:10:32;;;;;;;25.83;23.17;;;9.10;99.90;;;;;;5013333;28;20574;-71
2021/12/14 11:13:01;;;;;;;25.83;23.17;;;9.20;99.90;;;;;;5012438;28;20478;-71
2021/12/14 11:15:35;;;;;;;26.70;23.80;;;9.00;99.90;;;;;;5014886;28;20555;-70
2021/12/14 11:18:11;;;;;;;25.83;22.63;;;9.00;99.90;;;;;;5013995;28;20575;-73
2021/12/14 11:20:43;;;;;;;25.50;22.80;;;9.00;99.90;;;;;;5012734;28;20836;-71
2021/12/14 11:23:14;;;;;;;26.83;23.40;;;9.10;99.90;;;;;;5015674;28;20512;-72
2021/12/14 11:25:51;;;;;;;27.53;24.63;;;9.00;99.90;;;;;;5016408;28;20464;-74
2021/12/14 11:28:21;;;;;;;26.97;24.17;;;9.10;99.90;;;;;;5013855;28;20457;-70
2021/12/14 11:30:52;;;;;;;27.80;24.07;;;9.00;99.90;;;;;;5020530;28;21022;-71
2021/12/14 11:33:22;;;;;;;27.20;24.23;;;9.10;99.90;;;;;;5018797;28;20472;-71
2021/12/14 11:35:53;;;;;;;26.50;23.80;;;9.00;99.90;;;;;;5020214;28;20472;-70
2021/12/14 11:38:32;;;;;;;27.73;24.50;;;9.00;99.90;;;;;;5021406;28;20464;-72
2021/12/14 11:41:01;;;;;;;25.60;22.90;;;9.20;99.90;;;;;;5016250;28;20820;-72
2021/12/14 11:43:30;;;;;;;26.63;23.90;;;9.20;99.90;;;;;;5019736;28;20870;-72
2021/12/14 11:45:57;;;;;;;27.13;24.23;;;9.20;99.90;;;;;;5021653;28;21417;-71
2021/12/14 11:48:31;;;;;;;26.63;23.90;;;9.20;99.90;;;;;;5020390;28;20462;-71
2021/12/14 11:50:59;;;;;;;25.10;22.60;;;9.30;99.90;;;;;;5020438;28;21038;-73
2021/12/14 11:53:27;;;;;;;27.30;24.53;;;9.30;99.90;;;;;;5014672;28;20528;-73
2021/12/14 11:56:00;;;;;;;26.50;23.83;;;9.30;99.90;;;;;;5018595;28;20464;-72
2021/12/14 11:58:33;;;;;;;27.87;24.93;;;9.30;99.90;;;;;;5023013;28;20469;-71
2021/12/14 12:01:07;;;;;;;28.77;25.77;;;9.20;99.90;;;;;;5026273;28;20464;-73
2021/12/14 12:03:39;;;;;;;26.63;23.93;;;9.30;99.90;;;;;;5018325;28;20521;-72
2021/12/14 12:06:10;;;;;;;29.63;25.43;;;9.30;99.90;;;;;;5019051;28;20458;-72
2021/12/14 12:11:35;;;;;;;28.37;25.30;;;9.40;99.90;;;;;;5011448;28;20574;-69
2021/12/14 12:14:15;;;;;;;32.20;25.30;;;9.20;99.90;;;;;;5018346;28;20471;-69
2021/12/14 12:16:42;;;;;;;27.23;24.60;;;9.30;99.90;;;;;;5016309;28;20574;-70
2021/12/14 12:19:13;;;;;;;28.13;24.27;;;9.40;99.90;;;;;;5024324;28;20468;-68
2021/12/14 12:21:42;;;;;;;27.63;24.87;;;9.60;99.90;;;;;;5019659;28;20470;-71
2021/12/14 12:24:32;;;;;;;27.03;24.23;;;9.60;99.90;;;;;;5019211;28;20468;-71
2021/12/14 12:27:31;;;;;;;27.87;24.90;;;9.70;99.90;;;;;;5013363;28;20502;-73
2021/12/14 12:30:31;;;;;;;26.37;23.67;;;9.70;99.90;;;;;;5017443;28;20531;-75
2021/12/14 12:33:04;;;;;;;26.73;24.10;;;9.80;99.90;;;;;;5019011;28;20462;-68
2021/12/14 12:35:38;;;;;;;24.70;22.37;;;9.80;99.90;;;;;;4997438;28;20773;-70
2021/12/14 12:38:27;;;;;;;28.73;24.17;;;9.80;99.90;;;;;;5018536;28;20927;-70
2021/12/14 12:41:01;;;;;;;24.90;22.60;;;9.70;99.90;;;;;;5017769;28;20464;-73
2021/12/14 12:43:33;;;;;;;26.03;23.43;;;10.00;99.90;;;;;;5016652;28;20484;-71
2021/12/14 12:46:06;;;;;;;26.80;24.10;;;10.10;99.90;;;;;;5021125;28;20507;-70
2021/12/14 12:48:55;;;;;;;25.83;23.30;;;10.00;99.90;;;;;;5015450;28;20479;-73
2021/12/14 12:51:50;;;;;;;26.07;23.27;;;9.80;99.90;;;;;;5014346;28;20579;-71
2021/12/14 12:54:29;;;;;;;25.67;22.97;;;9.90;99.90;;;;;;5013249;28;20465;-70
2021/12/14 12:57:37;;;;;;;26.33;23.73;;;10.10;99.90;;;;;;5012359;28;20464;-71
2021/12/14 13:00:29;;;;;;;25.67;23.17;;;10.00;99.90;;;;;;4997686;28;20967;-71
2021/12/14 13:03:01;;;;;;;25.43;23.10;;;9.90;99.90;;;;;;5007115;28;20505;-70
2021/12/14 13:05:33;;;;;;;26.87;24.30;;;10.10;99.90;;;;;;5016429;28;20465;-72
2021/12/14 13:08:14;;;;;;;24.60;22.00;;;10.10;99.90;;;;;;5019877;28;21035;-70
2021/12/14 13:10:44;;;;;;;25.67;23.13;;;10.20;99.90;;;;;;5018315;28;20496;-71
2021/12/14 13:13:16;;;;;;;26.93;24.10;;;10.20;99.90;;;;;;5012717;28;20826;-69
2021/12/14 13:16:08;;;;;;;24.80;22.50;;;10.10;99.90;;;;;;5017323;28;20479;-72
2021/12/14 13:18:55;;;;;;;24.60;22.13;;;10.40;99.90;;;;;;5014095;28;20469;-69
2021/12/14 13:21:32;;;;;;;25.53;23.23;;;10.50;99.90;;;;;;5013622;28;20465;-70
2021/12/14 13:24:07;;;;;;;26.53;23.73;;;10.20;99.90;;;;;;5011738;28;20477;-70
2021/12/14 13:26:44;;;;;;;26.67;24.10;;;10.40;99.90;;;;;;5015534;28;20996;-70